sensor_id;sensor_type;location;lat;lon;timestamp;P1;durP1;ratioP1;P2;durP2;ratioP2
18917;SDS011;9591;52.742;13.650;2023-02-15T00:01:27;48.17;;;17.17;;
18917;SDS011;9591;52.742;13.650;2023-02-15T00:04:14;43.03;;;16.57;;
18917;SDS011;9591;52.742;13.650;2023-02-15T00:07:02;51.60;;;16.43;;
18917;SDS011;9591;52.742;13.650;2023-02-15T00:09:52;40.43;;;15.77;;
18917;SDS011;9591;52.742;13.650;2023-02-15T00:12:39;45.63;;;17.73;;
18917;SDS011;9591;52.742;13.650;2023-02-15T00:15:29;44.53;;;17.53;;
18917;SDS011;9591;52.742;13.650;2023-02-15T00:18:17;47.00;;;16.97;;
18917;SDS011;9591;52.742;13.650;2023-02-15T00:21:04;51.30;;;17.37;;
18917;SDS011;9591;52.742;13.650;2023-02-15T00:23:52;43.03;;;15.33;;
18917;SDS011;9591;52.742;13.650;2023-02-15T00:26:39;39.30;;;14.60;;
18917;SDS011;9591;52.742;13.650;2023-02-15T00:29:27;45.23;;;17.87;;
18917;SDS011;9591;52.742;13.650;2023-02-15T00:32:14;43.63;;;17.60;;
18917;SDS011;9591;52.742;13.650;2023-02-15T00:35:02;45.90;;;17.03;;
18917;SDS011;9591;52.742;13.650;2023-02-15T00:37:49;46.07;;;17.90;;
18917;SDS011;9591;52.742;13.650;2023-02-15T00:40:37;48.80;;;16.43;;
18917;SDS011;9591;52.742;13.650;2023-02-15T00:43:24;50.50;;;16.93;;
18917;SDS011;9591;52.742;13.650;2023-02-15T00:46:12;46.47;;;16.83;;
18917;SDS011;9591;52.742;13.650;2023-02-15T00:48:58;40.23;;;16.23;;
18917;SDS011;9591;52.742;13.650;2023-02-15T00:51:47;47.57;;;18.20;;
18917;SDS011;9591;52.742;13.650;2023-02-15T00:54:33;48.97;;;16.23;;
18917;SDS011;9591;52.742;13.650;2023-02-15T00:57:21;39.17;;;15.90;;
18917;SDS011;9591;52.742;13.650;2023-02-15T01:00:08;36.00;;;13.03;;
18917;SDS011;9591;52.742;13.650;2023-02-15T01:02:55;49.53;;;16.63;;
18917;SDS011;9591;52.742;13.650;2023-02-15T01:05:42;42.87;;;16.47;;
18917;SDS011;9591;52.742;13.650;2023-02-15T01:08:30;45.90;;;15.60;;
18917;SDS011;9591;52.742;13.650;2023-02-15T01:11:18;41.97;;;16.27;;
18917;SDS011;9591;52.742;13.650;2023-02-15T01:14:10;40.87;;;15.10;;
18917;SDS011;9591;52.742;13.650;2023-02-15T01:16:59;39.87;;;16.67;;
18917;SDS011;9591;52.742;13.650;2023-02-15T01:19:46;44.33;;;15.67;;
18917;SDS011;9591;52.742;13.650;2023-02-15T01:22:33;44.57;;;15.67;;
18917;SDS011;9591;52.742;13.650;2023-02-15T01:25:21;36.90;;;14.40;;
18917;SDS011;9591;52.742;13.650;2023-02-15T01:28:09;42.10;;;15.73;;
18917;SDS011;9591;52.742;13.650;2023-02-15T01:30:56;42.63;;;15.17;;
18917;SDS011;9591;52.742;13.650;2023-02-15T01:33:44;39.30;;;14.90;;
18917;SDS011;9591;52.742;13.650;2023-02-15T01:36:33;40.17;;;15.00;;
18917;SDS011;9591;52.742;13.650;2023-02-15T01:39:20;43.43;;;15.20;;
18917;SDS011;9591;52.742;13.650;2023-02-15T01:42:10;42.47;;;14.53;;
18917;SDS011;9591;52.742;13.650;2023-02-15T01:44:58;46.07;;;17.30;;
18917;SDS011;9591;52.742;13.650;2023-02-15T01:47:47;41.40;;;15.60;;
18917;SDS011;9591;52.742;13.650;2023-02-15T01:50:38;39.67;;;14.17;;
18917;SDS011;9591;52.742;13.650;2023-02-15T01:53:30;49.60;;;16.67;;
18917;SDS011;9591;52.742;13.650;2023-02-15T01:56:24;42.77;;;15.93;;
18917;SDS011;9591;52.742;13.650;2023-02-15T01:59:19;44.23;;;16.03;;
18917;SDS011;9591;52.742;13.650;2023-02-15T02:02:08;42.33;;;16.27;;
18917;SDS011;9591;52.742;13.650;2023-02-15T02:05:00;47.03;;;15.40;;
18917;SDS011;9591;52.742;13.650;2023-02-15T02:07:51;42.77;;;16.17;;
18917;SDS011;9591;52.742;13.650;2023-02-15T02:10:40;45.63;;;15.73;;
18917;SDS011;9591;52.742;13.650;2023-02-15T02:13:27;45.83;;;16.20;;
18917;SDS011;9591;52.742;13.650;2023-02-15T02:16:17;50.13;;;15.33;;
18917;SDS011;9591;52.742;13.650;2023-02-15T02:19:19;44.27;;;16.33;;
18917;SDS011;9591;52.742;13.650;2023-02-15T02:22:36;48.63;;;15.57;;
18917;SDS011;9591;52.742;13.650;2023-02-15T02:29:40;40.97;;;15.27;;
18917;SDS011;9591;52.742;13.650;2023-02-15T02:33:07;43.30;;;15.13;;
18917;SDS011;9591;52.742;13.650;2023-02-15T02:36:06;41.23;;;14.73;;
18917;SDS011;9591;52.742;13.650;2023-02-15T02:39:06;44.50;;;15.30;;
18917;SDS011;9591;52.742;13.650;2023-02-15T02:42:01;49.70;;;15.33;;
18917;SDS011;9591;52.742;13.650;2023-02-15T02:44:53;41.63;;;14.97;;
18917;SDS011;9591;52.742;13.650;2023-02-15T02:47:44;43.53;;;15.23;;
18917;SDS011;9591;52.742;13.650;2023-02-15T02:50:38;42.30;;;13.73;;
18917;SDS011;9591;52.742;13.650;2023-02-15T02:53:27;40.47;;;14.10;;
18917;SDS011;9591;52.742;13.650;2023-02-15T02:56:18;40.73;;;14.73;;
18917;SDS011;9591;52.742;13.650;2023-02-15T02:59:09;47.27;;;15.43;;
18917;SDS011;9591;52.742;13.650;2023-02-15T03:01:59;42.47;;;14.73;;
18917;SDS011;9591;52.742;13.650;2023-02-15T03:04:56;38.87;;;13.37;;
18917;SDS011;9591;52.742;13.650;2023-02-15T03:07:49;44.40;;;14.93;;
18917;SDS011;9591;52.742;13.650;2023-02-15T03:10:40;43.17;;;14.37;;
18917;SDS011;9591;52.742;13.650;2023-02-15T03:13:27;36.20;;;12.73;;
18917;SDS011;9591;52.742;13.650;2023-02-15T03:16:15;44.17;;;13.80;;
18917;SDS011;9591;52.742;13.650;2023-02-15T03:19:12;40.33;;;14.03;;
18917;SDS011;9591;52.742;13.650;2023-02-15T03:22:03;39.20;;;14.53;;
18917;SDS011;9591;52.742;13.650;2023-02-15T03:24:56;42.07;;;12.80;;
18917;SDS011;9591;52.742;13.650;2023-02-15T03:27:46;45.57;;;13.47;;
18917;SDS011;9591;52.742;13.650;2023-02-15T03:30:37;39.33;;;14.50;;
18917;SDS011;9591;52.742;13.650;2023-02-15T03:33:28;45.77;;;14.10;;
18917;SDS011;9591;52.742;13.650;2023-02-15T03:36:17;46.50;;;14.60;;
18917;SDS011;9591;52.742;13.650;2023-02-15T03:39:10;45.67;;;14.87;;
18917;SDS011;9591;52.742;13.650;2023-02-15T03:42:06;45.10;;;14.67;;
18917;SDS011;9591;52.742;13.650;2023-02-15T03:45:01;47.10;;;14.03;;
18917;SDS011;9591;52.742;13.650;2023-02-15T03:47:50;39.57;;;13.53;;
18917;SDS011;9591;52.742;13.650;2023-02-15T03:50:38;39.57;;;13.63;;
18917;SDS011;9591;52.742;13.650;2023-02-15T03:53:44;46.60;;;13.87;;
18917;SDS011;9591;52.742;13.650;2023-02-15T03:56:33;43.77;;;14.93;;
18917;SDS011;9591;52.742;13.650;2023-02-15T03:59:22;46.67;;;15.07;;
18917;SDS011;9591;52.742;13.650;2023-02-15T04:02:27;46.47;;;14.90;;
18917;SDS011;9591;52.742;13.650;2023-02-15T04:05:22;38.37;;;13.93;;
18917;SDS011;9591;52.742;13.650;2023-02-15T04:08:09;44.73;;;13.50;;
18917;SDS011;9591;52.742;13.650;2023-02-15T04:10:57;36.53;;;12.90;;
18917;SDS011;9591;52.742;13.650;2023-02-15T04:13:44;43.97;;;14.73;;
18917;SDS011;9591;52.742;13.650;2023-02-15T04:16:32;36.47;;;13.03;;
18917;SDS011;9591;52.742;13.650;2023-02-15T04:19:18;41.83;;;14.20;;
18917;SDS011;9591;52.742;13.650;2023-02-15T04:22:22;41.07;;;14.43;;
18917;SDS011;9591;52.742;13.650;2023-02-15T04:25:26;42.03;;;14.33;;
18917;SDS011;9591;52.742;13.650;2023-02-15T04:28:13;35.57;;;14.80;;
18917;SDS011;9591;52.742;13.650;2023-02-15T04:31:00;38.23;;;14.67;;
18917;SDS011;9591;52.742;13.650;2023-02-15T04:33:48;34.47;;;13.30;;
18917;SDS011;9591;52.742;13.650;2023-02-15T04:36:35;48.03;;;13.73;;
18917;SDS011;9591;52.742;13.650;2023-02-15T04:39:22;40.60;;;13.10;;
18917;SDS011;9591;52.742;13.650;2023-02-15T04:42:09;49.70;;;16.40;;
18917;SDS011;9591;52.742;13.650;2023-02-15T04:44:55;39.47;;;14.50;;
18917;SDS011;9591;52.742;13.650;2023-02-15T04:47:42;42.20;;;14.93;;
18917;SDS011;9591;52.742;13.650;2023-02-15T04:50:30;41.93;;;13.67;;
18917;SDS011;9591;52.742;13.650;2023-02-15T04:53:17;44.53;;;15.53;;
18917;SDS011;9591;52.742;13.650;2023-02-15T04:56:04;49.03;;;14.87;;
18917;SDS011;9591;52.742;13.650;2023-02-15T04:58:50;40.43;;;14.20;;
18917;SDS011;9591;52.742;13.650;2023-02-15T05:01:37;48.57;;;14.43;;
18917;SDS011;9591;52.742;13.650;2023-02-15T05:04:24;34.40;;;13.60;;
18917;SDS011;9591;52.742;13.650;2023-02-15T05:07:12;43.70;;;13.77;;
18917;SDS011;9591;52.742;13.650;2023-02-15T05:09:59;41.13;;;14.63;;
18917;SDS011;9591;52.742;13.650;2023-02-15T05:12:46;43.87;;;13.93;;
18917;SDS011;9591;52.742;13.650;2023-02-15T05:15:33;45.20;;;13.60;;
18917;SDS011;9591;52.742;13.650;2023-02-15T05:18:23;47.43;;;15.40;;
18917;SDS011;9591;52.742;13.650;2023-02-15T05:21:10;51.90;;;15.43;;
18917;SDS011;9591;52.742;13.650;2023-02-15T05:23:59;49.43;;;13.97;;
18917;SDS011;9591;52.742;13.650;2023-02-15T05:27:08;36.70;;;12.17;;
18917;SDS011;9591;52.742;13.650;2023-02-15T05:30:19;45.00;;;13.60;;
18917;SDS011;9591;52.742;13.650;2023-02-15T05:33:06;54.73;;;14.40;;
18917;SDS011;9591;52.742;13.650;2023-02-15T05:35:54;37.37;;;12.53;;
18917;SDS011;9591;52.742;13.650;2023-02-15T05:38:40;39.10;;;13.67;;
18917;SDS011;9591;52.742;13.650;2023-02-15T05:41:28;40.00;;;13.50;;
18917;SDS011;9591;52.742;13.650;2023-02-15T05:44:15;36.17;;;13.17;;
18917;SDS011;9591;52.742;13.650;2023-02-15T05:47:02;39.07;;;13.73;;
18917;SDS011;9591;52.742;13.650;2023-02-15T05:49:51;40.60;;;13.90;;
18917;SDS011;9591;52.742;13.650;2023-02-15T05:52:38;48.20;;;15.43;;
18917;SDS011;9591;52.742;13.650;2023-02-15T05:55:25;50.50;;;13.73;;
18917;SDS011;9591;52.742;13.650;2023-02-15T05:58:13;42.60;;;13.93;;
18917;SDS011;9591;52.742;13.650;2023-02-15T06:01:06;38.73;;;11.93;;
18917;SDS011;9591;52.742;13.650;2023-02-15T06:03:54;44.63;;;13.83;;
18917;SDS011;9591;52.742;13.650;2023-02-15T06:06:41;40.53;;;12.80;;
18917;SDS011;9591;52.742;13.650;2023-02-15T06:09:28;42.27;;;15.17;;
18917;SDS011;9591;52.742;13.650;2023-02-15T06:12:15;47.27;;;14.87;;
18917;SDS011;9591;52.742;13.650;2023-02-15T06:15:03;45.20;;;14.43;;
18917;SDS011;9591;52.742;13.650;2023-02-15T06:17:51;45.10;;;14.83;;
18917;SDS011;9591;52.742;13.650;2023-02-15T06:20:38;34.87;;;13.80;;
18917;SDS011;9591;52.742;13.650;2023-02-15T06:23:25;45.90;;;14.73;;
18917;SDS011;9591;52.742;13.650;2023-02-15T06:26:11;50.60;;;15.67;;
18917;SDS011;9591;52.742;13.650;2023-02-15T06:28:58;42.67;;;13.07;;
18917;SDS011;9591;52.742;13.650;2023-02-15T06:31:46;40.93;;;13.90;;
18917;SDS011;9591;52.742;13.650;2023-02-15T06:34:33;41.33;;;14.03;;
18917;SDS011;9591;52.742;13.650;2023-02-15T06:37:20;46.07;;;13.10;;
18917;SDS011;9591;52.742;13.650;2023-02-15T06:40:09;45.80;;;14.77;;
18917;SDS011;9591;52.742;13.650;2023-02-15T06:42:57;47.93;;;15.23;;
18917;SDS011;9591;52.742;13.650;2023-02-15T06:45:46;37.50;;;13.53;;
18917;SDS011;9591;52.742;13.650;2023-02-15T06:48:35;45.63;;;15.53;;
18917;SDS011;9591;52.742;13.650;2023-02-15T06:51:23;41.33;;;13.93;;
18917;SDS011;9591;52.742;13.650;2023-02-15T06:54:10;47.10;;;14.33;;
18917;SDS011;9591;52.742;13.650;2023-02-15T06:56:56;54.10;;;16.90;;
18917;SDS011;9591;52.742;13.650;2023-02-15T06:59:43;54.00;;;16.07;;
18917;SDS011;9591;52.742;13.650;2023-02-15T07:02:30;39.63;;;14.10;;
18917;SDS011;9591;52.742;13.650;2023-02-15T07:05:18;51.47;;;16.50;;
18917;SDS011;9591;52.742;13.650;2023-02-15T07:08:05;49.10;;;14.53;;
18917;SDS011;9591;52.742;13.650;2023-02-15T07:10:52;49.30;;;16.80;;
18917;SDS011;9591;52.742;13.650;2023-02-15T07:14:01;39.17;;;14.70;;
18917;SDS011;9591;52.742;13.650;2023-02-15T07:16:48;49.03;;;17.47;;
18917;SDS011;9591;52.742;13.650;2023-02-15T07:19:35;62.53;;;18.13;;
18917;SDS011;9591;52.742;13.650;2023-02-15T07:22:23;55.00;;;18.67;;
18917;SDS011;9591;52.742;13.650;2023-02-15T07:25:10;59.40;;;19.87;;
18917;SDS011;9591;52.742;13.650;2023-02-15T07:27:58;66.20;;;19.97;;
18917;SDS011;9591;52.742;13.650;2023-02-15T07:30:47;61.20;;;19.57;;
18917;SDS011;9591;52.742;13.650;2023-02-15T07:33:34;71.03;;;20.77;;
18917;SDS011;9591;52.742;13.650;2023-02-15T07:36:20;65.90;;;20.97;;
18917;SDS011;9591;52.742;13.650;2023-02-15T07:39:09;60.30;;;18.73;;
18917;SDS011;9591;52.742;13.650;2023-02-15T07:41:55;76.10;;;19.00;;
18917;SDS011;9591;52.742;13.650;2023-02-15T07:44:47;90.13;;;19.87;;
18917;SDS011;9591;52.742;13.650;2023-02-15T07:47:34;101.30;;;20.03;;
18917;SDS011;9591;52.742;13.650;2023-02-15T07:50:21;89.13;;;18.97;;
18917;SDS011;9591;52.742;13.650;2023-02-15T07:53:08;73.50;;;19.10;;
18917;SDS011;9591;52.742;13.650;2023-02-15T07:55:57;62.80;;;16.40;;
18917;SDS011;9591;52.742;13.650;2023-02-15T07:58:46;70.40;;;19.13;;
18917;SDS011;9591;52.742;13.650;2023-02-15T08:01:40;84.63;;;20.17;;
18917;SDS011;9591;52.742;13.650;2023-02-15T08:04:27;80.20;;;18.87;;
18917;SDS011;9591;52.742;13.650;2023-02-15T08:07:14;78.37;;;18.43;;
18917;SDS011;9591;52.742;13.650;2023-02-15T08:10:01;67.07;;;18.13;;
18917;SDS011;9591;52.742;13.650;2023-02-15T08:12:50;75.70;;;19.53;;
18917;SDS011;9591;52.742;13.650;2023-02-15T08:15:37;93.10;;;18.70;;
18917;SDS011;9591;52.742;13.650;2023-02-15T08:18:25;73.33;;;17.93;;
18917;SDS011;9591;52.742;13.650;2023-02-15T08:21:13;71.87;;;19.33;;
18917;SDS011;9591;52.742;13.650;2023-02-15T08:24:01;72.97;;;20.03;;
18917;SDS011;9591;52.742;13.650;2023-02-15T08:26:50;60.10;;;20.80;;
18917;SDS011;9591;52.742;13.650;2023-02-15T08:29:41;60.37;;;16.90;;
18917;SDS011;9591;52.742;13.650;2023-02-15T08:32:28;61.27;;;18.40;;
18917;SDS011;9591;52.742;13.650;2023-02-15T08:35:16;85.80;;;20.07;;
18917;SDS011;9591;52.742;13.650;2023-02-15T08:38:03;91.47;;;20.90;;
18917;SDS011;9591;52.742;13.650;2023-02-15T08:40:51;81.43;;;18.90;;
18917;SDS011;9591;52.742;13.650;2023-02-15T08:43:38;83.93;;;19.50;;
18917;SDS011;9591;52.742;13.650;2023-02-15T08:46:27;85.43;;;19.73;;
18917;SDS011;9591;52.742;13.650;2023-02-15T08:49:15;82.27;;;20.17;;
18917;SDS011;9591;52.742;13.650;2023-02-15T08:52:05;62.87;;;18.57;;
18917;SDS011;9591;52.742;13.650;2023-02-15T08:54:52;59.07;;;18.17;;
18917;SDS011;9591;52.742;13.650;2023-02-15T08:57:38;60.30;;;17.90;;
18917;SDS011;9591;52.742;13.650;2023-02-15T09:00:29;50.97;;;17.03;;
18917;SDS011;9591;52.742;13.650;2023-02-15T09:03:18;63.63;;;19.57;;
18917;SDS011;9591;52.742;13.650;2023-02-15T09:06:05;67.30;;;19.13;;
18917;SDS011;9591;52.742;13.650;2023-02-15T09:08:52;67.07;;;17.43;;
18917;SDS011;9591;52.742;13.650;2023-02-15T09:11:40;54.57;;;16.60;;
18917;SDS011;9591;52.742;13.650;2023-02-15T09:14:28;55.53;;;17.17;;
18917;SDS011;9591;52.742;13.650;2023-02-15T09:17:14;86.73;;;19.03;;
18917;SDS011;9591;52.742;13.650;2023-02-15T09:20:03;57.50;;;15.93;;
18917;SDS011;9591;52.742;13.650;2023-02-15T09:22:51;52.37;;;15.87;;
18917;SDS011;9591;52.742;13.650;2023-02-15T09:25:43;49.30;;;16.00;;
18917;SDS011;9591;52.742;13.650;2023-02-15T09:28:30;52.60;;;17.03;;
18917;SDS011;9591;52.742;13.650;2023-02-15T09:31:18;47.93;;;15.97;;
18917;SDS011;9591;52.742;13.650;2023-02-15T09:34:08;54.83;;;16.70;;
18917;SDS011;9591;52.742;13.650;2023-02-15T09:36:56;49.77;;;16.93;;
18917;SDS011;9591;52.742;13.650;2023-02-15T09:39:43;55.13;;;16.93;;
18917;SDS011;9591;52.742;13.650;2023-02-15T09:42:37;56.93;;;15.67;;
18917;SDS011;9591;52.742;13.650;2023-02-15T09:45:50;78.47;;;19.10;;
18917;SDS011;9591;52.742;13.650;2023-02-15T09:48:48;55.27;;;18.10;;
18917;SDS011;9591;52.742;13.650;2023-02-15T09:51:53;62.70;;;18.70;;
18917;SDS011;9591;52.742;13.650;2023-02-15T09:54:58;94.20;;;19.00;;
18917;SDS011;9591;52.742;13.650;2023-02-15T09:57:59;57.13;;;17.33;;
18917;SDS011;9591;52.742;13.650;2023-02-15T10:00:55;61.60;;;17.47;;
18917;SDS011;9591;52.742;13.650;2023-02-15T10:03:53;65.37;;;18.23;;
18917;SDS011;9591;52.742;13.650;2023-02-15T10:06:58;61.60;;;19.70;;
18917;SDS011;9591;52.742;13.650;2023-02-15T10:09:56;45.63;;;16.10;;
18917;SDS011;9591;52.742;13.650;2023-02-15T10:13:02;57.07;;;17.93;;
18917;SDS011;9591;52.742;13.650;2023-02-15T10:16:05;59.70;;;18.13;;
18917;SDS011;9591;52.742;13.650;2023-02-15T10:19:06;54.13;;;18.17;;
18917;SDS011;9591;52.742;13.650;2023-02-15T10:22:06;59.40;;;17.43;;
18917;SDS011;9591;52.742;13.650;2023-02-15T10:25:21;72.27;;;19.30;;
18917;SDS011;9591;52.742;13.650;2023-02-15T10:28:17;59.57;;;18.73;;
18917;SDS011;9591;52.742;13.650;2023-02-15T10:31:07;66.87;;;18.33;;
18917;SDS011;9591;52.742;13.650;2023-02-15T10:34:12;62.30;;;19.63;;
18917;SDS011;9591;52.742;13.650;2023-02-15T10:37:09;53.23;;;16.57;;
18917;SDS011;9591;52.742;13.650;2023-02-15T10:40:12;58.80;;;17.77;;
18917;SDS011;9591;52.742;13.650;2023-02-15T10:43:13;57.27;;;17.90;;
18917;SDS011;9591;52.742;13.650;2023-02-15T10:46:12;67.53;;;19.57;;
18917;SDS011;9591;52.742;13.650;2023-02-15T10:52:29;56.23;;;17.87;;
18917;SDS011;9591;52.742;13.650;2023-02-15T10:55:30;58.53;;;19.17;;
18917;SDS011;9591;52.742;13.650;2023-02-15T10:58:31;66.37;;;19.07;;
18917;SDS011;9591;52.742;13.650;2023-02-15T11:01:30;65.03;;;19.20;;
18917;SDS011;9591;52.742;13.650;2023-02-15T11:04:32;62.40;;;16.73;;
18917;SDS011;9591;52.742;13.650;2023-02-15T11:07:27;60.37;;;19.07;;
18917;SDS011;9591;52.742;13.650;2023-02-15T11:10:22;48.07;;;16.37;;
18917;SDS011;9591;52.742;13.650;2023-02-15T11:13:17;55.43;;;17.40;;
18917;SDS011;9591;52.742;13.650;2023-02-15T11:16:07;55.80;;;18.07;;
18917;SDS011;9591;52.742;13.650;2023-02-15T11:19:03;53.50;;;16.57;;
18917;SDS011;9591;52.742;13.650;2023-02-15T11:21:57;56.57;;;18.40;;
18917;SDS011;9591;52.742;13.650;2023-02-15T11:24:47;61.67;;;18.50;;
18917;SDS011;9591;52.742;13.650;2023-02-15T11:27:36;58.37;;;19.27;;
18917;SDS011;9591;52.742;13.650;2023-02-15T11:30:27;56.97;;;17.93;;
18917;SDS011;9591;52.742;13.650;2023-02-15T11:33:29;53.40;;;18.63;;
18917;SDS011;9591;52.742;13.650;2023-02-15T11:36:21;55.63;;;17.50;;
18917;SDS011;9591;52.742;13.650;2023-02-15T11:39:12;52.47;;;17.67;;
18917;SDS011;9591;52.742;13.650;2023-02-15T11:42:04;55.07;;;19.53;;
18917;SDS011;9591;52.742;13.650;2023-02-15T11:44:59;49.43;;;18.20;;
18917;SDS011;9591;52.742;13.650;2023-02-15T11:47:51;53.43;;;17.33;;
18917;SDS011;9591;52.742;13.650;2023-02-15T11:50:41;56.50;;;17.80;;
18917;SDS011;9591;52.742;13.650;2023-02-15T11:53:31;53.50;;;18.37;;
18917;SDS011;9591;52.742;13.650;2023-02-15T11:56:25;58.47;;;18.63;;
18917;SDS011;9591;52.742;13.650;2023-02-15T11:59:17;53.83;;;19.27;;
18917;SDS011;9591;52.742;13.650;2023-02-15T12:02:15;54.13;;;18.20;;
18917;SDS011;9591;52.742;13.650;2023-02-15T12:05:09;54.80;;;18.67;;
18917;SDS011;9591;52.742;13.650;2023-02-15T12:08:08;54.20;;;20.17;;
18917;SDS011;9591;52.742;13.650;2023-02-15T12:11:05;53.57;;;17.23;;
18917;SDS011;9591;52.742;13.650;2023-02-15T12:13:57;52.20;;;17.00;;
18917;SDS011;9591;52.742;13.650;2023-02-15T12:16:50;52.13;;;18.83;;
18917;SDS011;9591;52.742;13.650;2023-02-15T12:19:39;56.87;;;19.13;;
18917;SDS011;9591;52.742;13.650;2023-02-15T12:22:27;54.23;;;18.30;;
18917;SDS011;9591;52.742;13.650;2023-02-15T12:25:21;55.57;;;19.07;;
18917;SDS011;9591;52.742;13.650;2023-02-15T12:28:23;56.77;;;18.97;;
18917;SDS011;9591;52.742;13.650;2023-02-15T12:31:19;57.10;;;18.73;;
18917;SDS011;9591;52.742;13.650;2023-02-15T12:34:09;52.77;;;17.70;;
18917;SDS011;9591;52.742;13.650;2023-02-15T12:37:00;53.20;;;19.67;;
18917;SDS011;9591;52.742;13.650;2023-02-15T12:39:55;55.20;;;18.83;;
18917;SDS011;9591;52.742;13.650;2023-02-15T12:42:44;54.43;;;17.67;;
18917;SDS011;9591;52.742;13.650;2023-02-15T12:45:32;54.77;;;19.57;;
18917;SDS011;9591;52.742;13.650;2023-02-15T12:48:20;62.43;;;18.90;;
18917;SDS011;9591;52.742;13.650;2023-02-15T12:51:07;58.40;;;19.10;;
18917;SDS011;9591;52.742;13.650;2023-02-15T12:53:56;56.23;;;19.53;;
18917;SDS011;9591;52.742;13.650;2023-02-15T12:56:45;58.67;;;19.17;;
18917;SDS011;9591;52.742;13.650;2023-02-15T12:59:34;53.20;;;18.57;;
18917;SDS011;9591;52.742;13.650;2023-02-15T13:02:27;54.57;;;19.43;;
18917;SDS011;9591;52.742;13.650;2023-02-15T13:05:17;60.90;;;19.77;;
18917;SDS011;9591;52.742;13.650;2023-02-15T13:08:09;59.20;;;21.87;;
18917;SDS011;9591;52.742;13.650;2023-02-15T13:11:00;49.80;;;18.60;;
18917;SDS011;9591;52.742;13.650;2023-02-15T13:13:50;52.87;;;18.80;;
18917;SDS011;9591;52.742;13.650;2023-02-15T13:16:40;52.87;;;17.63;;
18917;SDS011;9591;52.742;13.650;2023-02-15T13:19:31;57.57;;;18.97;;
18917;SDS011;9591;52.742;13.650;2023-02-15T13:22:22;47.00;;;17.17;;
18917;SDS011;9591;52.742;13.650;2023-02-15T13:25:15;52.00;;;18.50;;
18917;SDS011;9591;52.742;13.650;2023-02-15T13:28:05;50.27;;;18.60;;
18917;SDS011;9591;52.742;13.650;2023-02-15T13:30:57;56.37;;;18.77;;
18917;SDS011;9591;52.742;13.650;2023-02-15T13:33:48;54.60;;;18.97;;
18917;SDS011;9591;52.742;13.650;2023-02-15T13:36:39;52.00;;;18.40;;
18917;SDS011;9591;52.742;13.650;2023-02-15T13:39:32;45.03;;;17.00;;
18917;SDS011;9591;52.742;13.650;2023-02-15T13:42:26;51.33;;;17.97;;
18917;SDS011;9591;52.742;13.650;2023-02-15T13:45:27;52.03;;;18.40;;
18917;SDS011;9591;52.742;13.650;2023-02-15T13:48:24;59.57;;;20.30;;
18917;SDS011;9591;52.742;13.650;2023-02-15T13:51:36;59.67;;;21.07;;
18917;SDS011;9591;52.742;13.650;2023-02-15T13:54:33;74.57;;;24.10;;
18917;SDS011;9591;52.742;13.650;2023-02-15T13:57:33;60.40;;;20.80;;
18917;SDS011;9591;52.742;13.650;2023-02-15T14:00:40;65.97;;;21.90;;
18917;SDS011;9591;52.742;13.650;2023-02-15T14:06:57;50.17;;;19.40;;
18917;SDS011;9591;52.742;13.650;2023-02-15T14:10:35;55.57;;;19.70;;
18917;SDS011;9591;52.742;13.650;2023-02-15T14:13:41;51.33;;;19.13;;
18917;SDS011;9591;52.742;13.650;2023-02-15T14:16:40;57.70;;;19.03;;
18917;SDS011;9591;52.742;13.650;2023-02-15T14:19:51;46.93;;;18.33;;
18917;SDS011;9591;52.742;13.650;2023-02-15T14:22:43;53.83;;;19.03;;
18917;SDS011;9591;52.742;13.650;2023-02-15T14:25:35;50.60;;;18.83;;
18917;SDS011;9591;52.742;13.650;2023-02-15T14:28:28;48.83;;;19.13;;
18917;SDS011;9591;52.742;13.650;2023-02-15T14:31:31;56.27;;;20.10;;
18917;SDS011;9591;52.742;13.650;2023-02-15T14:34:34;60.53;;;18.40;;
18917;SDS011;9591;52.742;13.650;2023-02-15T14:37:31;46.93;;;16.97;;
18917;SDS011;9591;52.742;13.650;2023-02-15T14:40:32;50.30;;;19.20;;
18917;SDS011;9591;52.742;13.650;2023-02-15T14:43:47;48.03;;;18.43;;
18917;SDS011;9591;52.742;13.650;2023-02-15T14:46:42;48.30;;;17.70;;
18917;SDS011;9591;52.742;13.650;2023-02-15T14:49:36;54.77;;;18.43;;
18917;SDS011;9591;52.742;13.650;2023-02-15T14:52:24;50.90;;;18.97;;
18917;SDS011;9591;52.742;13.650;2023-02-15T14:55:11;55.57;;;17.93;;
18917;SDS011;9591;52.742;13.650;2023-02-15T14:58:22;49.63;;;18.13;;
18917;SDS011;9591;52.742;13.650;2023-02-15T15:01:10;53.87;;;17.87;;
18917;SDS011;9591;52.742;13.650;2023-02-15T15:03:58;53.67;;;19.73;;
18917;SDS011;9591;52.742;13.650;2023-02-15T15:06:56;50.00;;;19.23;;
18917;SDS011;9591;52.742;13.650;2023-02-15T15:09:48;48.90;;;18.57;;
18917;SDS011;9591;52.742;13.650;2023-02-15T15:12:46;41.87;;;17.87;;
18917;SDS011;9591;52.742;13.650;2023-02-15T15:15:38;53.67;;;18.53;;
18917;SDS011;9591;52.742;13.650;2023-02-15T15:21:52;45.73;;;17.90;;
18917;SDS011;9591;52.742;13.650;2023-02-15T15:24:50;47.30;;;18.80;;
18917;SDS011;9591;52.742;13.650;2023-02-15T15:27:39;52.50;;;19.17;;
18917;SDS011;9591;52.742;13.650;2023-02-15T15:47:30;46.27;;;18.50;;
18917;SDS011;9591;52.742;13.650;2023-02-15T15:50:29;50.13;;;18.33;;
18917;SDS011;9591;52.742;13.650;2023-02-15T15:53:18;55.43;;;19.20;;
18917;SDS011;9591;52.742;13.650;2023-02-15T15:56:08;52.50;;;19.17;;
18917;SDS011;9591;52.742;13.650;2023-02-15T15:59:01;48.40;;;18.47;;
18917;SDS011;9591;52.742;13.650;2023-02-15T16:01:50;51.97;;;21.27;;
18917;SDS011;9591;52.742;13.650;2023-02-15T16:04:38;55.23;;;19.57;;
18917;SDS011;9591;52.742;13.650;2023-02-15T16:07:25;50.07;;;18.47;;
18917;SDS011;9591;52.742;13.650;2023-02-15T16:10:20;51.63;;;17.80;;
18917;SDS011;9591;52.742;13.650;2023-02-15T16:13:11;46.33;;;19.23;;
18917;SDS011;9591;52.742;13.650;2023-02-15T16:16:00;51.67;;;17.43;;
18917;SDS011;9591;52.742;13.650;2023-02-15T16:18:47;47.40;;;18.07;;
18917;SDS011;9591;52.742;13.650;2023-02-15T16:21:36;51.73;;;18.77;;
18917;SDS011;9591;52.742;13.650;2023-02-15T16:27:55;47.27;;;18.07;;
18917;SDS011;9591;52.742;13.650;2023-02-15T16:30:42;50.70;;;18.23;;
18917;SDS011;9591;52.742;13.650;2023-02-15T16:33:34;46.83;;;17.37;;
18917;SDS011;9591;52.742;13.650;2023-02-15T16:36:23;49.37;;;18.13;;
18917;SDS011;9591;52.742;13.650;2023-02-15T16:39:22;43.30;;;17.33;;
18917;SDS011;9591;52.742;13.650;2023-02-15T16:42:10;44.90;;;16.77;;
18917;SDS011;9591;52.742;13.650;2023-02-15T16:45:05;50.83;;;18.23;;
18917;SDS011;9591;52.742;13.650;2023-02-15T16:47:58;49.70;;;18.73;;
18917;SDS011;9591;52.742;13.650;2023-02-15T16:50:51;54.57;;;17.97;;
18917;SDS011;9591;52.742;13.650;2023-02-15T16:53:41;53.00;;;19.93;;
18917;SDS011;9591;52.742;13.650;2023-02-15T16:56:34;42.13;;;16.53;;
18917;SDS011;9591;52.742;13.650;2023-02-15T16:59:27;43.97;;;15.60;;
18917;SDS011;9591;52.742;13.650;2023-02-15T17:02:18;49.57;;;16.60;;
18917;SDS011;9591;52.742;13.650;2023-02-15T17:05:30;42.97;;;17.20;;
18917;SDS011;9591;52.742;13.650;2023-02-15T17:08:17;46.30;;;18.43;;
18917;SDS011;9591;52.742;13.650;2023-02-15T17:11:15;48.93;;;18.00;;
18917;SDS011;9591;52.742;13.650;2023-02-15T17:14:12;42.43;;;16.30;;
18917;SDS011;9591;52.742;13.650;2023-02-15T17:17:05;54.33;;;18.97;;
18917;SDS011;9591;52.742;13.650;2023-02-15T17:19:54;46.53;;;17.13;;